sensor_id;sensor_type;location;lat;lon;timestamp;P1;durP1;ratioP1;P2;durP2;ratioP2
12135;SDS011;6131;56.420;15.548;2023-04-01T00:01:40;8.07;;;3.07;;
12135;SDS011;6131;56.420;15.548;2023-04-01T00:04:06;4.27;;;2.80;;
12135;SDS011;6131;56.420;15.548;2023-04-01T00:06:32;4.73;;;2.53;;
12135;SDS011;6131;56.420;15.548;2023-04-01T00:08:58;5.27;;;2.70;;
12135;SDS011;6131;56.420;15.548;2023-04-01T00:11:24;6.07;;;3.10;;
12135;SDS011;6131;56.420;15.548;2023-04-01T00:13:52;3.83;;;2.70;;
12135;SDS011;6131;56.420;15.548;2023-04-01T00:16:19;4.67;;;2.83;;
12135;SDS011;6131;56.420;15.548;2023-04-01T00:18:45;6.13;;;2.77;;
12135;SDS011;6131;56.420;15.548;2023-04-01T00:21:12;3.23;;;2.53;;
12135;SDS011;6131;56.420;15.548;2023-04-01T00:23:38;6.57;;;3.30;;
12135;SDS011;6131;56.420;15.548;2023-04-01T00:26:04;4.77;;;2.70;;
12135;SDS011;6131;56.420;15.548;2023-04-01T00:28:30;6.97;;;2.90;;
12135;SDS011;6131;56.420;15.548;2023-04-01T00:30:56;5.80;;;3.00;;
12135;SDS011;6131;56.420;15.548;2023-04-01T00:33:22;3.90;;;2.30;;
12135;SDS011;6131;56.420;15.548;2023-04-01T00:35:48;4.73;;;3.17;;
12135;SDS011;6131;56.420;15.548;2023-04-01T00:38:14;5.43;;;3.00;;
12135;SDS011;6131;56.420;15.548;2023-04-01T00:40:42;5.37;;;3.20;;
12135;SDS011;6131;56.420;15.548;2023-04-01T00:43:10;4.83;;;3.13;;
12135;SDS011;6131;56.420;15.548;2023-04-01T00:45:38;7.87;;;3.00;;
12135;SDS011;6131;56.420;15.548;2023-04-01T00:48:15;5.60;;;2.80;;
12135;SDS011;6131;56.420;15.548;2023-04-01T00:50:42;6.47;;;3.13;;
12135;SDS011;6131;56.420;15.548;2023-04-01T00:53:10;5.67;;;3.00;;
12135;SDS011;6131;56.420;15.548;2023-04-01T00:55:37;5.60;;;2.87;;
12135;SDS011;6131;56.420;15.548;2023-04-01T00:58:05;4.87;;;2.97;;
12135;SDS011;6131;56.420;15.548;2023-04-01T01:00:33;6.13;;;3.00;;
12135;SDS011;6131;56.420;15.548;2023-04-01T01:03:00;5.83;;;3.27;;
12135;SDS011;6131;56.420;15.548;2023-04-01T01:05:38;7.73;;;3.30;;
12135;SDS011;6131;56.420;15.548;2023-04-01T01:08:25;5.50;;;2.57;;
12135;SDS011;6131;56.420;15.548;2023-04-01T01:10:55;4.73;;;2.77;;
12135;SDS011;6131;56.420;15.548;2023-04-01T01:13:25;4.90;;;2.97;;
12135;SDS011;6131;56.420;15.548;2023-04-01T01:16:04;5.50;;;2.70;;
12135;SDS011;6131;56.420;15.548;2023-04-01T01:18:47;3.93;;;2.80;;
12135;SDS011;6131;56.420;15.548;2023-04-01T01:29:49;7.20;;;3.33;;
12135;SDS011;6131;56.420;15.548;2023-04-01T01:32:03;6.00;;;2.70;;
12135;SDS011;6131;56.420;15.548;2023-04-01T01:37:12;4.77;;;2.10;;
12135;SDS011;6131;56.420;15.548;2023-04-01T01:39:39;5.90;;;2.90;;
12135;SDS011;6131;56.420;15.548;2023-04-01T01:42:06;5.73;;;2.60;;
12135;SDS011;6131;56.420;15.548;2023-04-01T01:44:33;5.10;;;2.80;;
12135;SDS011;6131;56.420;15.548;2023-04-01T01:47:00;4.07;;;2.50;;
12135;SDS011;6131;56.420;15.548;2023-04-01T01:49:27;3.37;;;2.20;;
12135;SDS011;6131;56.420;15.548;2023-04-01T01:51:55;4.20;;;2.40;;
12135;SDS011;6131;56.420;15.548;2023-04-01T01:54:21;4.53;;;2.53;;
12135;SDS011;6131;56.420;15.548;2023-04-01T01:56:48;5.40;;;2.33;;
12135;SDS011;6131;56.420;15.548;2023-04-01T01:59:15;3.83;;;2.03;;
12135;SDS011;6131;56.420;15.548;2023-04-01T02:01:42;3.37;;;2.30;;
12135;SDS011;6131;56.420;15.548;2023-04-01T02:04:09;6.70;;;2.17;;
12135;SDS011;6131;56.420;15.548;2023-04-01T02:06:37;4.47;;;2.17;;
12135;SDS011;6131;56.420;15.548;2023-04-01T02:09:05;3.07;;;2.10;;
12135;SDS011;6131;56.420;15.548;2023-04-01T02:11:37;3.30;;;2.27;;
12135;SDS011;6131;56.420;15.548;2023-04-01T02:14:06;3.27;;;2.10;;
12135;SDS011;6131;56.420;15.548;2023-04-01T02:16:36;2.40;;;2.00;;
12135;SDS011;6131;56.420;15.548;2023-04-01T02:19:04;5.13;;;2.13;;
12135;SDS011;6131;56.420;15.548;2023-04-01T02:21:33;2.87;;;2.03;;
12135;SDS011;6131;56.420;15.548;2023-04-01T02:24:01;4.23;;;2.00;;
12135;SDS011;6131;56.420;15.548;2023-04-01T02:26:28;5.67;;;2.33;;
12135;SDS011;6131;56.420;15.548;2023-04-01T02:28:57;3.50;;;1.83;;
12135;SDS011;6131;56.420;15.548;2023-04-01T02:31:25;6.57;;;2.10;;
12135;SDS011;6131;56.420;15.548;2023-04-01T02:33:51;4.33;;;1.97;;
12135;SDS011;6131;56.420;15.548;2023-04-01T02:36:17;3.60;;;1.80;;
12135;SDS011;6131;56.420;15.548;2023-04-01T02:38:44;1.87;;;1.57;;
12135;SDS011;6131;56.420;15.548;2023-04-01T02:41:11;2.73;;;1.90;;
12135;SDS011;6131;56.420;15.548;2023-04-01T02:43:37;2.97;;;2.00;;
12135;SDS011;6131;56.420;15.548;2023-04-01T02:46:03;2.20;;;1.70;;
12135;SDS011;6131;56.420;15.548;2023-04-01T02:48:29;4.70;;;1.90;;
12135;SDS011;6131;56.420;15.548;2023-04-01T02:50:55;3.77;;;1.90;;
12135;SDS011;6131;56.420;15.548;2023-04-01T02:53:21;2.10;;;1.67;;
12135;SDS011;6131;56.420;15.548;2023-04-01T02:55:47;4.93;;;2.10;;
12135;SDS011;6131;56.420;15.548;2023-04-01T02:58:15;3.93;;;1.60;;
12135;SDS011;6131;56.420;15.548;2023-04-01T03:00:42;3.43;;;1.93;;
12135;SDS011;6131;56.420;15.548;2023-04-01T03:03:08;3.10;;;1.57;;
12135;SDS011;6131;56.420;15.548;2023-04-01T03:05:34;6.47;;;1.63;;
12135;SDS011;6131;56.420;15.548;2023-04-01T03:08:01;4.23;;;1.50;;
12135;SDS011;6131;56.420;15.548;2023-04-01T03:10:27;4.83;;;1.50;;
12135;SDS011;6131;56.420;15.548;2023-04-01T03:12:53;2.57;;;1.57;;
12135;SDS011;6131;56.420;15.548;2023-04-01T03:15:19;3.10;;;1.40;;
12135;SDS011;6131;56.420;15.548;2023-04-01T03:17:45;3.10;;;1.70;;
12135;SDS011;6131;56.420;15.548;2023-04-01T03:20:12;3.20;;;1.60;;
12135;SDS011;6131;56.420;15.548;2023-04-01T03:22:38;3.87;;;1.40;;
12135;SDS011;6131;56.420;15.548;2023-04-01T03:25:05;3.67;;;1.30;;
12135;SDS011;6131;56.420;15.548;2023-04-01T03:27:32;2.77;;;1.67;;
12135;SDS011;6131;56.420;15.548;2023-04-01T03:29:59;2.27;;;1.60;;
12135;SDS011;6131;56.420;15.548;2023-04-01T03:32:25;4.70;;;1.40;;
12135;SDS011;6131;56.420;15.548;2023-04-01T03:34:52;4.30;;;1.40;;
12135;SDS011;6131;56.420;15.548;2023-04-01T03:37:18;3.53;;;1.37;;
12135;SDS011;6131;56.420;15.548;2023-04-01T03:39:44;2.03;;;1.20;;
12135;SDS011;6131;56.420;15.548;2023-04-01T03:42:10;4.47;;;1.40;;
12135;SDS011;6131;56.420;15.548;2023-04-01T03:44:36;3.27;;;1.47;;
12135;SDS011;6131;56.420;15.548;2023-04-01T03:47:02;3.77;;;1.10;;
12135;SDS011;6131;56.420;15.548;2023-04-01T03:49:28;3.77;;;1.50;;
12135;SDS011;6131;56.420;15.548;2023-04-01T03:51:56;4.17;;;1.40;;
12135;SDS011;6131;56.420;15.548;2023-04-01T03:54:23;4.57;;;1.13;;
12135;SDS011;6131;56.420;15.548;2023-04-01T03:56:49;1.77;;;1.23;;
12135;SDS011;6131;56.420;15.548;2023-04-01T03:59:15;3.33;;;1.20;;
12135;SDS011;6131;56.420;15.548;2023-04-01T04:01:41;2.37;;;1.30;;
12135;SDS011;6131;56.420;15.548;2023-04-01T04:04:07;3.47;;;1.40;;
12135;SDS011;6131;56.420;15.548;2023-04-01T04:06:33;4.17;;;1.33;;
12135;SDS011;6131;56.420;15.548;2023-04-01T04:08:59;2.87;;;1.23;;
12135;SDS011;6131;56.420;15.548;2023-04-01T04:11:25;2.90;;;1.10;;
12135;SDS011;6131;56.420;15.548;2023-04-01T04:13:51;2.43;;;1.00;;
12135;SDS011;6131;56.420;15.548;2023-04-01T04:16:17;3.33;;;1.20;;
12135;SDS011;6131;56.420;15.548;2023-04-01T04:18:43;3.17;;;1.33;;
12135;SDS011;6131;56.420;15.548;2023-04-01T04:21:13;5.40;;;1.37;;
12135;SDS011;6131;56.420;15.548;2023-04-01T04:23:39;2.90;;;1.57;;
12135;SDS011;6131;56.420;15.548;2023-04-01T04:26:06;2.10;;;1.20;;
12135;SDS011;6131;56.420;15.548;2023-04-01T04:28:32;2.37;;;1.23;;
12135;SDS011;6131;56.420;15.548;2023-04-01T04:30:58;4.83;;;1.23;;
12135;SDS011;6131;56.420;15.548;2023-04-01T04:33:25;2.93;;;1.30;;
12135;SDS011;6131;56.420;15.548;2023-04-01T04:35:51;3.23;;;1.17;;
12135;SDS011;6131;56.420;15.548;2023-04-01T04:38:19;2.87;;;1.00;;
12135;SDS011;6131;56.420;15.548;2023-04-01T04:40:45;2.23;;;1.10;;
12135;SDS011;6131;56.420;15.548;2023-04-01T04:43:12;2.40;;;1.40;;
12135;SDS011;6131;56.420;15.548;2023-04-01T04:45:39;2.60;;;1.20;;
12135;SDS011;6131;56.420;15.548;2023-04-01T04:48:07;2.30;;;1.50;;
12135;SDS011;6131;56.420;15.548;2023-04-01T04:50:33;2.67;;;1.20;;
12135;SDS011;6131;56.420;15.548;2023-04-01T04:52:59;3.07;;;1.30;;
12135;SDS011;6131;56.420;15.548;2023-04-01T04:55:25;3.73;;;1.13;;
12135;SDS011;6131;56.420;15.548;2023-04-01T04:57:51;2.80;;;1.23;;
12135;SDS011;6131;56.420;15.548;2023-04-01T05:00:17;1.63;;;1.17;;
12135;SDS011;6131;56.420;15.548;2023-04-01T05:02:43;2.50;;;1.13;;
12135;SDS011;6131;56.420;15.548;2023-04-01T05:05:10;2.73;;;1.20;;
12135;SDS011;6131;56.420;15.548;2023-04-01T05:07:36;2.27;;;1.30;;
12135;SDS011;6131;56.420;15.548;2023-04-01T05:10:02;4.20;;;1.47;;
12135;SDS011;6131;56.420;15.548;2023-04-01T05:12:28;3.00;;;1.20;;
12135;SDS011;6131;56.420;15.548;2023-04-01T05:14:54;3.07;;;1.60;;
12135;SDS011;6131;56.420;15.548;2023-04-01T05:17:20;2.70;;;1.10;;
12135;SDS011;6131;56.420;15.548;2023-04-01T05:19:46;2.03;;;1.30;;
12135;SDS011;6131;56.420;15.548;2023-04-01T05:22:12;2.33;;;1.20;;
12135;SDS011;6131;56.420;15.548;2023-04-01T05:24:38;1.50;;;1.10;;
12135;SDS011;6131;56.420;15.548;2023-04-01T05:27:04;4.60;;;1.33;;
12135;SDS011;6131;56.420;15.548;2023-04-01T05:29:30;2.70;;;1.10;;
12135;SDS011;6131;56.420;15.548;2023-04-01T05:31:56;2.00;;;1.17;;
12135;SDS011;6131;56.420;15.548;2023-04-01T05:34:22;4.50;;;1.30;;
12135;SDS011;6131;56.420;15.548;2023-04-01T05:36:48;4.30;;;1.57;;
12135;SDS011;6131;56.420;15.548;2023-04-01T05:39:15;1.13;;;1.00;;
12135;SDS011;6131;56.420;15.548;2023-04-01T05:41:41;2.43;;;1.10;;
12135;SDS011;6131;56.420;15.548;2023-04-01T05:44:07;2.40;;;1.30;;
12135;SDS011;6131;56.420;15.548;2023-04-01T05:46:33;2.30;;;1.17;;
12135;SDS011;6131;56.420;15.548;2023-04-01T05:48:59;1.83;;;1.20;;
12135;SDS011;6131;56.420;15.548;2023-04-01T05:51:25;2.60;;;1.30;;
12135;SDS011;6131;56.420;15.548;2023-04-01T05:53:51;1.50;;;1.00;;
12135;SDS011;6131;56.420;15.548;2023-04-01T05:56:17;2.20;;;1.10;;
12135;SDS011;6131;56.420;15.548;2023-04-01T05:58:43;3.23;;;1.00;;
12135;SDS011;6131;56.420;15.548;2023-04-01T06:01:12;3.80;;;1.20;;
12135;SDS011;6131;56.420;15.548;2023-04-01T06:03:38;3.57;;;1.20;;
12135;SDS011;6131;56.420;15.548;2023-04-01T06:06:04;1.97;;;1.23;;
12135;SDS011;6131;56.420;15.548;2023-04-01T06:08:33;1.60;;;1.00;;
12135;SDS011;6131;56.420;15.548;2023-04-01T06:19:09;2.50;;;1.10;;
12135;SDS011;6131;56.420;15.548;2023-04-01T06:24:19;2.40;;;1.20;;
12135;SDS011;6131;56.420;15.548;2023-04-01T06:31:42;2.57;;;1.20;;
12135;SDS011;6131;56.420;15.548;2023-04-01T06:36:57;4.47;;;1.13;;
12135;SDS011;6131;56.420;15.548;2023-04-01T06:44:35;2.73;;;1.23;;
12135;SDS011;6131;56.420;15.548;2023-04-01T06:49:36;5.13;;;1.13;;
12135;SDS011;6131;56.420;15.548;2023-04-01T06:52:10;1.50;;;0.90;;
12135;SDS011;6131;56.420;15.548;2023-04-01T06:54:39;1.13;;;1.00;;
12135;SDS011;6131;56.420;15.548;2023-04-01T06:57:20;1.30;;;1.00;;
12135;SDS011;6131;56.420;15.548;2023-04-01T06:59:48;1.20;;;0.90;;
12135;SDS011;6131;56.420;15.548;2023-04-01T07:02:18;3.57;;;1.20;;
12135;SDS011;6131;56.420;15.548;2023-04-01T07:04:48;4.03;;;1.53;;
12135;SDS011;6131;56.420;15.548;2023-04-01T07:07:19;3.37;;;1.17;;
12135;SDS011;6131;56.420;15.548;2023-04-01T07:09:49;3.27;;;1.23;;
12135;SDS011;6131;56.420;15.548;2023-04-01T07:12:20;3.63;;;1.20;;
12135;SDS011;6131;56.420;15.548;2023-04-01T07:14:47;3.00;;;1.10;;
12135;SDS011;6131;56.420;15.548;2023-04-01T07:17:15;2.00;;;1.17;;
12135;SDS011;6131;56.420;15.548;2023-04-01T07:24:50;2.37;;;1.10;;
12135;SDS011;6131;56.420;15.548;2023-04-01T07:27:17;3.70;;;1.10;;
12135;SDS011;6131;56.420;15.548;2023-04-01T07:29:43;3.37;;;1.10;;
12135;SDS011;6131;56.420;15.548;2023-04-01T07:32:20;2.47;;;1.23;;
12135;SDS011;6131;56.420;15.548;2023-04-01T07:37:16;2.20;;;1.23;;
12135;SDS011;6131;56.420;15.548;2023-04-01T07:39:59;2.47;;;1.27;;
12135;SDS011;6131;56.420;15.548;2023-04-01T07:53:24;2.20;;;1.00;;
12135;SDS011;6131;56.420;15.548;2023-04-01T07:58:31;5.07;;;0.90;;
12135;SDS011;6131;56.420;15.548;2023-04-01T08:01:35;1.83;;;1.10;;
12135;SDS011;6131;56.420;15.548;2023-04-01T08:14:03;2.67;;;1.10;;
12135;SDS011;6131;56.420;15.548;2023-04-01T08:19:13;1.67;;;0.97;;
12135;SDS011;6131;56.420;15.548;2023-04-01T08:21:42;3.83;;;1.03;;
12135;SDS011;6131;56.420;15.548;2023-04-01T08:24:22;4.20;;;0.90;;
12135;SDS011;6131;56.420;15.548;2023-04-01T08:26:51;1.30;;;0.90;;
12135;SDS011;6131;56.420;15.548;2023-04-01T08:29:20;4.00;;;1.13;;
12135;SDS011;6131;56.420;15.548;2023-04-01T08:34:20;2.70;;;0.80;;
12135;SDS011;6131;56.420;15.548;2023-04-01T08:36:51;2.07;;;0.87;;
12135;SDS011;6131;56.420;15.548;2023-04-01T08:47:23;1.20;;;0.70;;
12135;SDS011;6131;56.420;15.548;2023-04-01T08:50:01;1.43;;;0.63;;
12135;SDS011;6131;56.420;15.548;2023-04-01T09:07:55;2.10;;;0.70;;
12135;SDS011;6131;56.420;15.548;2023-04-01T09:13:37;0.93;;;0.70;;
12135;SDS011;6131;56.420;15.548;2023-04-01T09:18:40;2.00;;;0.97;;
12135;SDS011;6131;56.420;15.548;2023-04-01T09:26:22;2.00;;;0.80;;
12135;SDS011;6131;56.420;15.548;2023-04-01T09:29:30;1.87;;;0.80;;
12135;SDS011;6131;56.420;15.548;2023-04-01T09:45:29;2.63;;;0.80;;
12135;SDS011;6131;56.420;15.548;2023-04-01T09:47:56;1.23;;;0.80;;
12135;SDS011;6131;56.420;15.548;2023-04-01T09:50:30;1.50;;;0.70;;
12135;SDS011;6131;56.420;15.548;2023-04-01T09:53:04;1.47;;;0.80;;
12135;SDS011;6131;56.420;15.548;2023-04-01T10:14:11;1.70;;;0.77;;
12135;SDS011;6131;56.420;15.548;2023-04-01T10:41:06;3.23;;;0.70;;
12135;SDS011;6131;56.420;15.548;2023-04-01T10:49:23;1.17;;;0.60;;
12135;SDS011;6131;56.420;15.548;2023-04-01T10:54:43;0.67;;;0.50;;
12135;SDS011;6131;56.420;15.548;2023-04-01T10:57:27;1.13;;;0.70;;
12135;SDS011;6131;56.420;15.548;2023-04-01T11:37:10;1.93;;;0.60;;
12135;SDS011;6131;56.420;15.548;2023-04-01T11:42:41;2.13;;;0.70;;
12135;SDS011;6131;56.420;15.548;2023-04-01T11:47:58;2.27;;;0.80;;
12135;SDS011;6131;56.420;15.548;2023-04-01T11:53:22;1.50;;;0.80;;
12135;SDS011;6131;56.420;15.548;2023-04-01T11:55:54;3.33;;;0.80;;
12135;SDS011;6131;56.420;15.548;2023-04-01T12:01:30;2.27;;;0.70;;
12135;SDS011;6131;56.420;15.548;2023-04-01T12:07:01;1.30;;;0.73;;
12135;SDS011;6131;56.420;15.548;2023-04-01T12:14:30;2.50;;;0.90;;
12135;SDS011;6131;56.420;15.548;2023-04-01T12:17:03;2.93;;;1.07;;
12135;SDS011;6131;56.420;15.548;2023-04-01T12:24:47;5.10;;;0.83;;
12135;SDS011;6131;56.420;15.548;2023-04-01T12:45:29;2.07;;;0.90;;
12135;SDS011;6131;56.420;15.548;2023-04-01T12:53:35;2.33;;;0.80;;
12135;SDS011;6131;56.420;15.548;2023-04-01T12:56:06;1.30;;;0.90;;
12135;SDS011;6131;56.420;15.548;2023-04-01T12:58:51;3.37;;;0.90;;
12135;SDS011;6131;56.420;15.548;2023-04-01T13:06:30;2.00;;;0.87;;
12135;SDS011;6131;56.420;15.548;2023-04-01T13:11:45;2.27;;;1.00;;
12135;SDS011;6131;56.420;15.548;2023-04-01T13:16:46;1.53;;;0.80;;
12135;SDS011;6131;56.420;15.548;2023-04-01T13:19:20;3.03;;;0.90;;
12135;SDS011;6131;56.420;15.548;2023-04-01T13:22:05;1.47;;;0.80;;
12135;SDS011;6131;56.420;15.548;2023-04-01T13:32:41;1.30;;;0.90;;
12135;SDS011;6131;56.420;15.548;2023-04-01T13:42:50;1.10;;;0.70;;
12135;SDS011;6131;56.420;15.548;2023-04-01T13:50:51;2.10;;;0.80;;
12135;SDS011;6131;56.420;15.548;2023-04-01T13:53:35;3.57;;;1.03;;
12135;SDS011;6131;56.420;15.548;2023-04-01T14:01:04;1.33;;;0.67;;
12135;SDS011;6131;56.420;15.548;2023-04-01T14:06:27;3.30;;;0.70;;
12135;SDS011;6131;56.420;15.548;2023-04-01T14:08:58;1.83;;;0.80;;
12135;SDS011;6131;56.420;15.548;2023-04-01T14:11:30;2.77;;;0.80;;
12135;SDS011;6131;56.420;15.548;2023-04-01T14:14:47;1.50;;;0.70;;
12135;SDS011;6131;56.420;15.548;2023-04-01T14:19:22;1.60;;;0.70;;
12135;SDS011;6131;56.420;15.548;2023-04-01T14:27:33;2.00;;;0.80;;
12135;SDS011;6131;56.420;15.548;2023-04-01T14:48:37;2.50;;;0.90;;
12135;SDS011;6131;56.420;15.548;2023-04-01T14:51:18;2.20;;;0.80;;
12135;SDS011;6131;56.420;15.548;2023-04-01T14:53:59;0.80;;;0.60;;
12135;SDS011;6131;56.420;15.548;2023-04-01T15:02:12;1.23;;;0.73;;
12135;SDS011;6131;56.420;15.548;2023-04-01T15:12:39;0.73;;;0.50;;
12135;SDS011;6131;56.420;15.548;2023-04-01T15:18:25;2.10;;;0.60;;
12135;SDS011;6131;56.420;15.548;2023-04-01T15:36:27;1.70;;;0.50;;
12135;SDS011;6131;56.420;15.548;2023-04-01T15:41:26;0.87;;;0.50;;
12135;SDS011;6131;56.420;15.548;2023-04-01T15:43:54;0.57;;;0.37;;
12135;SDS011;6131;56.420;15.548;2023-04-01T16:12:35;0.73;;;0.30;;
12135;SDS011;6131;56.420;15.548;2023-04-01T16:15:08;1.07;;;0.40;;
12135;SDS011;6131;56.420;15.548;2023-04-01T16:20:34;0.50;;;0.30;;
12135;SDS011;6131;56.420;15.548;2023-04-01T16:23:13;1.27;;;0.23;;
12135;SDS011;6131;56.420;15.548;2023-04-01T16:25:44;0.67;;;0.30;;
12135;SDS011;6131;56.420;15.548;2023-04-01T16:30:40;1.23;;;0.40;;
12135;SDS011;6131;56.420;15.548;2023-04-01T16:33:22;0.60;;;0.40;;
12135;SDS011;6131;56.420;15.548;2023-04-01T16:35:54;1.13;;;0.40;;
12135;SDS011;6131;56.420;15.548;2023-04-01T16:38:26;0.97;;;0.40;;
12135;SDS011;6131;56.420;15.548;2023-04-01T16:43:35;0.50;;;0.30;;
12135;SDS011;6131;56.420;15.548;2023-04-01T16:46:16;1.77;;;0.40;;
12135;SDS011;6131;56.420;15.548;2023-04-01T16:51:54;0.60;;;0.40;;
12135;SDS011;6131;56.420;15.548;2023-04-01T16:57:01;1.43;;;0.40;;
12135;SDS011;6131;56.420;15.548;2023-04-01T16:59:34;1.67;;;0.40;;
12135;SDS011;6131;56.420;15.548;2023-04-01T17:07:10;1.07;;;0.60;;
12135;SDS011;6131;56.420;15.548;2023-04-01T17:22:44;0.87;;;0.40;;
12135;SDS011;6131;56.420;15.548;2023-04-01T17:28:08;1.80;;;0.50;;
12135;SDS011;6131;56.420;15.548;2023-04-01T17:30:49;1.40;;;0.33;;
12135;SDS011;6131;56.420;15.548;2023-04-01T17:33:25;1.23;;;0.40;;
12135;SDS011;6131;56.420;15.548;2023-04-01T17:35:57;1.23;;;0.70;;
12135;SDS011;6131;56.420;15.548;2023-04-01T17:38:30;0.80;;;0.50;;
12135;SDS011;6131;56.420;15.548;2023-04-01T17:48:27;0.90;;;0.23;;
12135;SDS011;6131;56.420;15.548;2023-04-01T17:59:16;2.43;;;0.37;;
12135;SDS011;6131;56.420;15.548;2023-04-01T18:22:19;1.47;;;0.70;;
12135;SDS011;6131;56.420;15.548;2023-04-01T18:27:43;2.73;;;0.80;;
12135;SDS011;6131;56.420;15.548;2023-04-01T18:30:14;1.93;;;0.53;;
12135;SDS011;6131;56.420;15.548;2023-04-01T18:32:48;1.40;;;0.50;;
12135;SDS011;6131;56.420;15.548;2023-04-01T18:35:20;1.23;;;0.63;;
12135;SDS011;6131;56.420;15.548;2023-04-01T18:37:50;1.60;;;0.80;;
12135;SDS011;6131;56.420;15.548;2023-04-01T18:40:28;2.40;;;0.60;;
12135;SDS011;6131;56.420;15.548;2023-04-01T18:43:00;1.33;;;0.70;;
12135;SDS011;6131;56.420;15.548;2023-04-01T18:48:30;2.10;;;0.60;;
12135;SDS011;6131;56.420;15.548;2023-04-01T18:56:25;1.53;;;0.80;;
12135;SDS011;6131;56.420;15.548;2023-04-01T18:58:54;1.00;;;0.50;;
12135;SDS011;6131;56.420;15.548;2023-04-01T19:01:26;1.57;;;0.53;;
12135;SDS011;6131;56.420;15.548;2023-04-01T19:07:17;1.13;;;0.70;;
12135;SDS011;6131;56.420;15.548;2023-04-01T19:09:16;1.37;;;0.60;;
12135;SDS011;6131;56.420;15.548;2023-04-01T19:11:46;1.43;;;0.63;;
12135;SDS011;6131;56.420;15.548;2023-04-01T19:16:48;1.70;;;0.40;;
12135;SDS011;6131;56.420;15.548;2023-04-01T19:19:19;2.50;;;0.67;;
12135;SDS011;6131;56.420;15.548;2023-04-01T19:24:25;1.53;;;0.60;;
12135;SDS011;6131;56.420;15.548;2023-04-01T19:27:03;0.80;;;0.40;;
12135;SDS011;6131;56.420;15.548;2023-04-01T19:29:36;1.60;;;0.50;;
12135;SDS011;6131;56.420;15.548;2023-04-01T19:52:30;1.10;;;0.50;;
12135;SDS011;6131;56.420;15.548;2023-04-01T19:57:41;1.10;;;0.37;;
12135;SDS011;6131;56.420;15.548;2023-04-01T20:00:15;0.60;;;0.40;;
12135;SDS011;6131;56.420;15.548;2023-04-01T20:15:36;1.30;;;0.50;;
12135;SDS011;6131;56.420;15.548;2023-04-01T20:18:14;1.97;;;0.60;;
12135;SDS011;6131;56.420;15.548;2023-04-01T20:20:43;1.60;;;0.40;;
12135;SDS011;6131;56.420;15.548;2023-04-01T20:26:02;2.60;;;0.53;;
12135;SDS011;6131;56.420;15.548;2023-04-01T20:28:32;2.87;;;0.40;;
12135;SDS011;6131;56.420;15.548;2023-04-01T20:31:11;1.30;;;0.60;;
12135;SDS011;6131;56.420;15.548;2023-04-01T20:41:43;2.73;;;0.70;;
12135;SDS011;6131;56.420;15.548;2023-04-01T20:44:12;1.60;;;0.40;;
12135;SDS011;6131;56.420;15.548;2023-04-01T20:55:21;0.90;;;0.47;;
12135;SDS011;6131;56.420;15.548;2023-04-01T20:57:31;1.90;;;0.50;;
12135;SDS011;6131;56.420;15.548;2023-04-01T21:02:53;2.00;;;0.37;;
12135;SDS011;6131;56.420;15.548;2023-04-01T21:21:03;1.57;;;0.50;;
12135;SDS011;6131;56.420;15.548;2023-04-01T21:26:18;1.73;;;0.40;;
12135;SDS011;6131;56.420;15.548;2023-04-01T21:28:58;2.83;;;0.50;;
12135;SDS011;6131;56.420;15.548;2023-04-01T21:39:31;3.70;;;0.63;;
12135;SDS011;6131;56.420;15.548;2023-04-01T21:50:00;1.57;;;0.50;;
12135;SDS011;6131;56.420;15.548;2023-04-01T21:52:49;2.50;;;0.50;;
12135;SDS011;6131;56.420;15.548;2023-04-01T22:05:36;2.22;;;0.57;;
12135;SDS011;6131;56.420;15.548;2023-04-01T22:10:32;3.27;;;0.63;;
12135;SDS011;6131;56.420;15.548;2023-04-01T22:13:10;2.13;;;0.57;;
12135;SDS011;6131;56.420;15.548;2023-04-01T22:15:47;1.03;;;0.47;;
12135;SDS011;6131;56.420;15.548;2023-04-01T22:28:24;1.23;;;0.40;;
12135;SDS011;6131;56.420;15.548;2023-04-01T22:30:55;1.20;;;0.40;;
12135;SDS011;6131;56.420;15.548;2023-04-01T22:36:32;0.93;;;0.53;;
12135;SDS011;6131;56.420;15.548;2023-04-01T22:43:57;2.13;;;0.70;;
12135;SDS011;6131;56.420;15.548;2023-04-01T22:56:21;1.13;;;0.70;;
12135;SDS011;6131;56.420;15.548;2023-04-01T22:58:56;1.00;;;0.60;;
12135;SDS011;6131;56.420;15.548;2023-04-01T23:01:25;2.03;;;0.50;;
12135;SDS011;6131;56.420;15.548;2023-04-01T23:03:52;2.20;;;0.60;;
12135;SDS011;6131;56.420;15.548;2023-04-01T23:06:20;2.90;;;0.60;;
12135;SDS011;6131;56.420;15.548;2023-04-01T23:11:37;2.33;;;0.70;;
12135;SDS011;6131;56.420;15.548;2023-04-01T23:16:43;1.53;;;0.70;;
12135;SDS011;6131;56.420;15.548;2023-04-01T23:19:15;2.53;;;0.80;;
12135;SDS011;6131;56.420;15.548;2023-04-01T23:21:51;2.73;;;0.57;;
12135;SDS011;6131;56.420;15.548;2023-04-01T23:24:25;1.00;;;0.40;;
12135;SDS011;6131;56.420;15.548;2023-04-01T23:29:22;1.17;;;0.40;;
12135;SDS011;6131;56.420;15.548;2023-04-01T23:31:54;3.73;;;0.63;;
12135;SDS011;6131;56.420;15.548;2023-04-01T23:34:23;1.80;;;0.60;;
12135;SDS011;6131;56.420;15.548;2023-04-01T23:36:51;1.87;;;0.60;;
12135;SDS011;6131;56.420;15.548;2023-04-01T23:39:25;3.33;;;0.70;;
12135;SDS011;6131;56.420;15.548;2023-04-01T23:41:53;1.27;;;0.50;;
12135;SDS011;6131;56.420;15.548;2023-04-01T23:44:20;1.23;;;0.60;;
12135;SDS011;6131;56.420;15.548;2023-04-01T23:46:47;0.77;;;0.30;;
12135;SDS011;6131;56.420;15.548;2023-04-01T23:49:15;1.07;;;0.60;;
12135;SDS011;6131;56.420;15.548;2023-04-01T23:51:50;3.63;;;0.60;;
12135;SDS011;6131;56.420;15.548;2023-04-01T23:54:19;2.60;;;0.53;;
12135;SDS011;6131;56.420;15.548;2023-04-01T23:56:53;2.30;;;0.70;;
12135;SDS011;6131;56.420;15.548;2023-04-01T23:59:38;3.10;;;0.93;;
